sensor_id;sensor_type;location;lat;lon;timestamp;P1;durP1;ratioP1;P2;durP2;ratioP2
39600;SDS011;25297;44.758;11.310;2024-02-21T00:01:44;59.60;;;39.58;;
39600;SDS011;25297;44.758;11.310;2024-02-21T00:04:10;60.50;;;42.33;;
39600;SDS011;25297;44.758;11.310;2024-02-21T00:06:35;60.60;;;42.13;;
39600;SDS011;25297;44.758;11.310;2024-02-21T00:09:01;60.47;;;40.92;;
39600;SDS011;25297;44.758;11.310;2024-02-21T00:11:27;65.65;;;44.50;;
39600;SDS011;25297;44.758;11.310;2024-02-21T00:13:53;63.75;;;43.45;;
39600;SDS011;25297;44.758;11.310;2024-02-21T00:16:19;61.60;;;42.92;;
39600;SDS011;25297;44.758;11.310;2024-02-21T00:18:45;62.17;;;41.85;;
39600;SDS011;25297;44.758;11.310;2024-02-21T00:21:10;62.03;;;42.88;;
39600;SDS011;25297;44.758;11.310;2024-02-21T00:23:43;63.30;;;42.13;;
39600;SDS011;25297;44.758;11.310;2024-02-21T00:26:12;56.42;;;40.13;;
39600;SDS011;25297;44.758;11.310;2024-02-21T00:28:38;58.28;;;40.97;;
39600;SDS011;25297;44.758;11.310;2024-02-21T00:31:04;63.70;;;41.78;;
39600;SDS011;25297;44.758;11.310;2024-02-21T00:33:30;61.38;;;38.25;;
39600;SDS011;25297;44.758;11.310;2024-02-21T00:35:55;57.75;;;37.90;;
39600;SDS011;25297;44.758;11.310;2024-02-21T00:38:21;56.90;;;38.97;;
39600;SDS011;25297;44.758;11.310;2024-02-21T00:40:47;55.92;;;39.78;;
39600;SDS011;25297;44.758;11.310;2024-02-21T00:43:12;49.72;;;36.42;;
39600;SDS011;25297;44.758;11.310;2024-02-21T00:45:38;47.88;;;36.95;;
39600;SDS011;25297;44.758;11.310;2024-02-21T00:48:04;49.78;;;34.22;;
39600;SDS011;25297;44.758;11.310;2024-02-21T00:50:30;46.95;;;34.33;;
39600;SDS011;25297;44.758;11.310;2024-02-21T00:52:55;50.90;;;33.05;;
39600;SDS011;25297;44.758;11.310;2024-02-21T00:55:21;56.67;;;37.45;;
39600;SDS011;25297;44.758;11.310;2024-02-21T00:57:47;49.97;;;34.85;;
39600;SDS011;25297;44.758;11.310;2024-02-21T01:00:12;53.17;;;37.40;;
39600;SDS011;25297;44.758;11.310;2024-02-21T01:02:38;50.83;;;35.78;;
39600;SDS011;25297;44.758;11.310;2024-02-21T01:05:04;49.83;;;33.58;;
39600;SDS011;25297;44.758;11.310;2024-02-21T01:07:30;54.85;;;35.22;;
39600;SDS011;25297;44.758;11.310;2024-02-21T01:09:56;57.60;;;38.53;;
39600;SDS011;25297;44.758;11.310;2024-02-21T01:12:21;59.90;;;39.35;;
39600;SDS011;25297;44.758;11.310;2024-02-21T01:14:47;67.05;;;43.20;;
39600;SDS011;25297;44.758;11.310;2024-02-21T01:17:14;57.65;;;38.95;;
39600;SDS011;25297;44.758;11.310;2024-02-21T01:19:40;62.05;;;41.38;;
39600;SDS011;25297;44.758;11.310;2024-02-21T01:22:06;69.72;;;44.42;;
39600;SDS011;25297;44.758;11.310;2024-02-21T01:24:31;74.93;;;47.65;;
39600;SDS011;25297;44.758;11.310;2024-02-21T01:26:57;74.07;;;48.00;;
39600;SDS011;25297;44.758;11.310;2024-02-21T01:29:22;80.80;;;49.45;;
39600;SDS011;25297;44.758;11.310;2024-02-21T01:31:48;80.88;;;48.90;;
39600;SDS011;25297;44.758;11.310;2024-02-21T01:34:14;77.05;;;48.08;;
39600;SDS011;25297;44.758;11.310;2024-02-21T01:36:39;78.47;;;48.42;;
39600;SDS011;25297;44.758;11.310;2024-02-21T01:39:06;65.28;;;42.08;;
39600;SDS011;25297;44.758;11.310;2024-02-21T01:41:32;80.13;;;48.97;;
39600;SDS011;25297;44.758;11.310;2024-02-21T01:43:57;78.65;;;50.28;;
39600;SDS011;25297;44.758;11.310;2024-02-21T01:46:23;78.57;;;48.35;;
39600;SDS011;25297;44.758;11.310;2024-02-21T01:48:54;81.32;;;51.13;;
39600;SDS011;25297;44.758;11.310;2024-02-21T01:51:21;84.95;;;52.28;;
39600;SDS011;25297;44.758;11.310;2024-02-21T01:53:46;78.72;;;50.53;;
39600;SDS011;25297;44.758;11.310;2024-02-21T01:56:12;84.40;;;52.97;;
39600;SDS011;25297;44.758;11.310;2024-02-21T01:58:39;84.95;;;54.38;;
39600;SDS011;25297;44.758;11.310;2024-02-21T02:01:07;101.20;;;58.00;;
39600;SDS011;25297;44.758;11.310;2024-02-21T02:03:33;94.10;;;58.17;;
39600;SDS011;25297;44.758;11.310;2024-02-21T02:05:59;90.93;;;53.85;;
39600;SDS011;25297;44.758;11.310;2024-02-21T02:08:25;87.63;;;54.85;;
39600;SDS011;25297;44.758;11.310;2024-02-21T02:10:51;93.40;;;57.60;;
39600;SDS011;25297;44.758;11.310;2024-02-21T02:13:17;83.63;;;51.13;;
39600;SDS011;25297;44.758;11.310;2024-02-21T02:18:09;91.00;;;57.63;;
39600;SDS011;25297;44.758;11.310;2024-02-21T02:20:36;96.82;;;61.00;;
39600;SDS011;25297;44.758;11.310;2024-02-21T02:25:37;95.38;;;56.10;;
39600;SDS011;25297;44.758;11.310;2024-02-21T02:28:06;97.32;;;57.80;;
39600;SDS011;25297;44.758;11.310;2024-02-21T02:30:33;96.43;;;58.70;;
39600;SDS011;25297;44.758;11.310;2024-02-21T02:33:01;96.47;;;58.50;;
39600;SDS011;25297;44.758;11.310;2024-02-21T02:35:27;86.65;;;55.35;;
39600;SDS011;25297;44.758;11.310;2024-02-21T02:37:53;82.00;;;51.28;;
39600;SDS011;25297;44.758;11.310;2024-02-21T02:40:18;81.45;;;49.53;;
39600;SDS011;25297;44.758;11.310;2024-02-21T02:42:44;73.95;;;48.30;;
39600;SDS011;25297;44.758;11.310;2024-02-21T02:45:10;82.60;;;49.83;;
39600;SDS011;25297;44.758;11.310;2024-02-21T02:47:36;98.78;;;60.28;;
39600;SDS011;25297;44.758;11.310;2024-02-21T02:50:02;110.03;;;64.20;;
39600;SDS011;25297;44.758;11.310;2024-02-21T02:52:27;86.18;;;54.45;;
39600;SDS011;25297;44.758;11.310;2024-02-21T02:54:53;93.38;;;53.45;;
39600;SDS011;25297;44.758;11.310;2024-02-21T02:57:21;84.07;;;51.85;;
39600;SDS011;25297;44.758;11.310;2024-02-21T02:59:50;80.70;;;50.05;;
39600;SDS011;25297;44.758;11.310;2024-02-21T03:02:16;85.20;;;52.90;;
39600;SDS011;25297;44.758;11.310;2024-02-21T03:04:42;108.35;;;62.45;;
39600;SDS011;25297;44.758;11.310;2024-02-21T03:07:08;96.60;;;57.85;;
39600;SDS011;25297;44.758;11.310;2024-02-21T03:09:33;93.95;;;58.00;;
39600;SDS011;25297;44.758;11.310;2024-02-21T03:11:59;96.35;;;60.60;;
39600;SDS011;25297;44.758;11.310;2024-02-21T03:14:31;103.82;;;58.65;;
39600;SDS011;25297;44.758;11.310;2024-02-21T03:17:00;92.60;;;57.10;;
39600;SDS011;25297;44.758;11.310;2024-02-21T03:19:27;89.55;;;55.97;;
39600;SDS011;25297;44.758;11.310;2024-02-21T03:21:53;91.25;;;54.22;;
39600;SDS011;25297;44.758;11.310;2024-02-21T03:24:19;80.45;;;49.20;;
39600;SDS011;25297;44.758;11.310;2024-02-21T03:26:45;79.72;;;49.58;;
39600;SDS011;25297;44.758;11.310;2024-02-21T03:29:15;85.38;;;52.75;;
39600;SDS011;25297;44.758;11.310;2024-02-21T03:31:42;93.03;;;56.10;;
39600;SDS011;25297;44.758;11.310;2024-02-21T03:34:09;89.97;;;56.60;;
39600;SDS011;25297;44.758;11.310;2024-02-21T03:36:36;89.43;;;54.55;;
39600;SDS011;25297;44.758;11.310;2024-02-21T03:39:01;73.60;;;45.95;;
39600;SDS011;25297;44.758;11.310;2024-02-21T03:41:27;80.90;;;51.67;;
39600;SDS011;25297;44.758;11.310;2024-02-21T03:43:53;80.05;;;47.95;;
39600;SDS011;25297;44.758;11.310;2024-02-21T03:46:19;85.43;;;51.05;;
39600;SDS011;25297;44.758;11.310;2024-02-21T03:48:45;91.18;;;56.78;;
39600;SDS011;25297;44.758;11.310;2024-02-21T03:51:11;96.28;;;55.45;;
39600;SDS011;25297;44.758;11.310;2024-02-21T03:53:36;90.10;;;54.17;;
39600;SDS011;25297;44.758;11.310;2024-02-21T03:56:02;85.70;;;51.83;;
39600;SDS011;25297;44.758;11.310;2024-02-21T03:58:29;83.80;;;52.47;;
39600;SDS011;25297;44.758;11.310;2024-02-21T04:00:55;81.60;;;51.35;;
39600;SDS011;25297;44.758;11.310;2024-02-21T04:03:21;84.10;;;52.40;;
39600;SDS011;25297;44.758;11.310;2024-02-21T04:05:47;67.30;;;42.65;;
39600;SDS011;25297;44.758;11.310;2024-02-21T04:08:13;105.45;;;61.53;;
39600;SDS011;25297;44.758;11.310;2024-02-21T04:10:39;89.72;;;53.92;;
39600;SDS011;25297;44.758;11.310;2024-02-21T04:13:05;83.95;;;51.03;;
39600;SDS011;25297;44.758;11.310;2024-02-21T04:15:31;80.03;;;49.97;;
39600;SDS011;25297;44.758;11.310;2024-02-21T04:17:57;80.00;;;48.47;;
39600;SDS011;25297;44.758;11.310;2024-02-21T04:20:23;96.03;;;55.72;;
39600;SDS011;25297;44.758;11.310;2024-02-21T04:22:49;88.45;;;52.92;;
39600;SDS011;25297;44.758;11.310;2024-02-21T04:25:14;92.05;;;55.50;;
39600;SDS011;25297;44.758;11.310;2024-02-21T04:27:40;85.95;;;54.25;;
39600;SDS011;25297;44.758;11.310;2024-02-21T04:30:07;86.63;;;52.38;;
39600;SDS011;25297;44.758;11.310;2024-02-21T04:32:33;82.10;;;50.67;;
39600;SDS011;25297;44.758;11.310;2024-02-21T04:34:59;86.95;;;52.97;;
39600;SDS011;25297;44.758;11.310;2024-02-21T04:37:24;87.90;;;54.08;;
39600;SDS011;25297;44.758;11.310;2024-02-21T04:39:50;92.20;;;54.22;;
39600;SDS011;25297;44.758;11.310;2024-02-21T04:42:16;88.40;;;54.15;;
39600;SDS011;25297;44.758;11.310;2024-02-21T04:44:42;92.40;;;53.15;;
39600;SDS011;25297;44.758;11.310;2024-02-21T04:47:07;94.70;;;52.97;;
39600;SDS011;25297;44.758;11.310;2024-02-21T04:49:33;96.68;;;57.47;;
39600;SDS011;25297;44.758;11.310;2024-02-21T04:51:59;98.35;;;56.70;;
39600;SDS011;25297;44.758;11.310;2024-02-21T04:54:25;103.00;;;56.42;;
39600;SDS011;25297;44.758;11.310;2024-02-21T04:56:51;89.82;;;54.28;;
39600;SDS011;25297;44.758;11.310;2024-02-21T04:59:16;98.22;;;56.13;;
39600;SDS011;25297;44.758;11.310;2024-02-21T05:01:42;102.25;;;58.03;;
39600;SDS011;25297;44.758;11.310;2024-02-21T05:04:08;103.32;;;59.90;;
39600;SDS011;25297;44.758;11.310;2024-02-21T05:06:37;80.47;;;47.30;;
39600;SDS011;25297;44.758;11.310;2024-02-21T05:09:03;85.35;;;53.20;;
39600;SDS011;25297;44.758;11.310;2024-02-21T05:11:30;95.15;;;56.75;;
39600;SDS011;25297;44.758;11.310;2024-02-21T05:13:56;80.88;;;48.35;;
39600;SDS011;25297;44.758;11.310;2024-02-21T05:16:21;74.95;;;44.33;;
39600;SDS011;25297;44.758;11.310;2024-02-21T05:18:47;73.20;;;47.50;;
39600;SDS011;25297;44.758;11.310;2024-02-21T05:21:13;85.20;;;53.22;;
39600;SDS011;25297;44.758;11.310;2024-02-21T05:23:39;83.78;;;51.40;;
39600;SDS011;25297;44.758;11.310;2024-02-21T05:26:05;87.38;;;50.25;;
39600;SDS011;25297;44.758;11.310;2024-02-21T05:28:31;91.07;;;51.50;;
39600;SDS011;25297;44.758;11.310;2024-02-21T05:30:57;83.97;;;52.45;;
39600;SDS011;25297;44.758;11.310;2024-02-21T05:33:22;100.88;;;58.40;;
39600;SDS011;25297;44.758;11.310;2024-02-21T05:35:48;86.22;;;51.90;;
39600;SDS011;25297;44.758;11.310;2024-02-21T05:38:14;86.82;;;51.17;;
39600;SDS011;25297;44.758;11.310;2024-02-21T05:40:40;88.43;;;51.65;;
39600;SDS011;25297;44.758;11.310;2024-02-21T05:43:09;97.50;;;53.97;;
39600;SDS011;25297;44.758;11.310;2024-02-21T05:45:35;92.53;;;52.88;;
39600;SDS011;25297;44.758;11.310;2024-02-21T05:48:01;91.22;;;51.92;;
39600;SDS011;25297;44.758;11.310;2024-02-21T05:50:27;99.18;;;56.10;;
39600;SDS011;25297;44.758;11.310;2024-02-21T05:52:56;87.97;;;51.28;;
39600;SDS011;25297;44.758;11.310;2024-02-21T05:55:22;84.82;;;50.60;;
39600;SDS011;25297;44.758;11.310;2024-02-21T05:57:47;81.38;;;50.22;;
39600;SDS011;25297;44.758;11.310;2024-02-21T06:00:14;106.72;;;56.08;;
39600;SDS011;25297;44.758;11.310;2024-02-21T06:02:40;84.18;;;49.55;;
39600;SDS011;25297;44.758;11.310;2024-02-21T06:05:06;71.80;;;44.22;;
39600;SDS011;25297;44.758;11.310;2024-02-21T06:07:33;89.18;;;52.47;;
39600;SDS011;25297;44.758;11.310;2024-02-21T06:09:59;91.40;;;52.67;;
39600;SDS011;25297;44.758;11.310;2024-02-21T06:12:25;91.47;;;53.78;;
39600;SDS011;25297;44.758;11.310;2024-02-21T06:14:51;88.82;;;51.92;;
39600;SDS011;25297;44.758;11.310;2024-02-21T06:17:17;77.97;;;49.42;;
39600;SDS011;25297;44.758;11.310;2024-02-21T06:19:43;71.28;;;43.45;;
39600;SDS011;25297;44.758;11.310;2024-02-21T06:22:10;77.47;;;45.53;;
39600;SDS011;25297;44.758;11.310;2024-02-21T06:24:36;77.45;;;46.50;;
39600;SDS011;25297;44.758;11.310;2024-02-21T06:27:02;77.05;;;45.65;;
39600;SDS011;25297;44.758;11.310;2024-02-21T06:29:28;89.07;;;51.75;;
39600;SDS011;25297;44.758;11.310;2024-02-21T06:31:54;78.28;;;45.58;;
39600;SDS011;25297;44.758;11.310;2024-02-21T06:34:20;69.80;;;43.20;;
39600;SDS011;25297;44.758;11.310;2024-02-21T06:36:46;68.13;;;41.75;;
39600;SDS011;25297;44.758;11.310;2024-02-21T06:39:12;63.50;;;40.25;;
39600;SDS011;25297;44.758;11.310;2024-02-21T06:41:37;77.88;;;48.45;;
39600;SDS011;25297;44.758;11.310;2024-02-21T06:44:03;85.53;;;49.10;;
39600;SDS011;25297;44.758;11.310;2024-02-21T06:46:29;69.38;;;42.83;;
39600;SDS011;25297;44.758;11.310;2024-02-21T06:48:55;83.95;;;45.17;;
39600;SDS011;25297;44.758;11.310;2024-02-21T06:51:23;89.82;;;48.58;;
39600;SDS011;25297;44.758;11.310;2024-02-21T06:53:52;80.13;;;46.80;;
39600;SDS011;25297;44.758;11.310;2024-02-21T06:56:18;99.97;;;55.75;;
39600;SDS011;25297;44.758;11.310;2024-02-21T06:58:44;72.70;;;43.05;;
39600;SDS011;25297;44.758;11.310;2024-02-21T07:01:10;80.82;;;46.55;;
39600;SDS011;25297;44.758;11.310;2024-02-21T07:03:36;75.38;;;45.33;;
39600;SDS011;25297;44.758;11.310;2024-02-21T07:06:02;78.63;;;48.03;;
39600;SDS011;25297;44.758;11.310;2024-02-21T07:08:29;85.60;;;47.38;;
39600;SDS011;25297;44.758;11.310;2024-02-21T07:10:54;88.80;;;47.38;;
39600;SDS011;25297;44.758;11.310;2024-02-21T07:13:20;75.00;;;42.35;;
39600;SDS011;25297;44.758;11.310;2024-02-21T07:15:47;79.35;;;41.88;;
39600;SDS011;25297;44.758;11.310;2024-02-21T07:18:13;73.88;;;42.45;;
39600;SDS011;25297;44.758;11.310;2024-02-21T07:20:39;76.82;;;45.15;;
39600;SDS011;25297;44.758;11.310;2024-02-21T07:23:06;73.22;;;42.22;;
39600;SDS011;25297;44.758;11.310;2024-02-21T07:25:33;74.90;;;43.05;;
39600;SDS011;25297;44.758;11.310;2024-02-21T07:27:59;76.75;;;46.97;;
39600;SDS011;25297;44.758;11.310;2024-02-21T07:30:25;76.10;;;44.88;;
39600;SDS011;25297;44.758;11.310;2024-02-21T07:32:50;76.50;;;46.92;;
39600;SDS011;25297;44.758;11.310;2024-02-21T07:35:19;73.65;;;43.60;;
39600;SDS011;25297;44.758;11.310;2024-02-21T07:37:45;80.05;;;47.80;;
39600;SDS011;25297;44.758;11.310;2024-02-21T07:40:13;81.68;;;47.35;;
39600;SDS011;25297;44.758;11.310;2024-02-21T07:42:40;84.13;;;48.95;;
39600;SDS011;25297;44.758;11.310;2024-02-21T07:45:09;75.95;;;46.03;;
39600;SDS011;25297;44.758;11.310;2024-02-21T07:47:35;76.22;;;45.92;;
39600;SDS011;25297;44.758;11.310;2024-02-21T07:50:04;65.88;;;42.22;;
39600;SDS011;25297;44.758;11.310;2024-02-21T07:52:31;69.13;;;44.40;;
39600;SDS011;25297;44.758;11.310;2024-02-21T07:54:56;72.18;;;45.47;;
39600;SDS011;25297;44.758;11.310;2024-02-21T07:57:22;73.53;;;45.55;;
39600;SDS011;25297;44.758;11.310;2024-02-21T07:59:48;68.72;;;42.65;;
39600;SDS011;25297;44.758;11.310;2024-02-21T08:02:14;66.75;;;42.55;;
39600;SDS011;25297;44.758;11.310;2024-02-21T08:04:40;66.47;;;42.25;;
39600;SDS011;25297;44.758;11.310;2024-02-21T08:07:06;75.05;;;46.80;;
39600;SDS011;25297;44.758;11.310;2024-02-21T08:09:32;69.60;;;45.35;;
39600;SDS011;25297;44.758;11.310;2024-02-21T08:11:57;74.90;;;44.03;;
39600;SDS011;25297;44.758;11.310;2024-02-21T08:14:23;70.93;;;43.60;;
39600;SDS011;25297;44.758;11.310;2024-02-21T08:16:50;70.70;;;42.70;;
39600;SDS011;25297;44.758;11.310;2024-02-21T08:19:18;64.88;;;41.97;;
39600;SDS011;25297;44.758;11.310;2024-02-21T08:21:44;60.75;;;40.20;;
39600;SDS011;25297;44.758;11.310;2024-02-21T08:24:12;72.53;;;46.13;;
39600;SDS011;25297;44.758;11.310;2024-02-21T08:26:43;62.65;;;43.17;;
39600;SDS011;25297;44.758;11.310;2024-02-21T08:29:10;62.72;;;39.45;;
39600;SDS011;25297;44.758;11.310;2024-02-21T08:31:36;61.45;;;41.13;;
39600;SDS011;25297;44.758;11.310;2024-02-21T08:34:02;63.35;;;42.40;;
39600;SDS011;25297;44.758;11.310;2024-02-21T08:36:29;65.32;;;43.65;;
39600;SDS011;25297;44.758;11.310;2024-02-21T08:38:56;60.75;;;42.22;;
39600;SDS011;25297;44.758;11.310;2024-02-21T08:41:22;65.45;;;44.03;;
39600;SDS011;25297;44.758;11.310;2024-02-21T08:43:49;71.32;;;44.28;;
39600;SDS011;25297;44.758;11.310;2024-02-21T08:46:21;66.88;;;44.10;;
39600;SDS011;25297;44.758;11.310;2024-02-21T08:48:46;62.08;;;42.17;;
39600;SDS011;25297;44.758;11.310;2024-02-21T08:51:13;66.35;;;44.20;;
39600;SDS011;25297;44.758;11.310;2024-02-21T08:53:38;68.13;;;44.28;;
39600;SDS011;25297;44.758;11.310;2024-02-21T08:56:04;66.20;;;45.08;;
39600;SDS011;25297;44.758;11.310;2024-02-21T08:58:30;62.45;;;41.58;;
39600;SDS011;25297;44.758;11.310;2024-02-21T09:00:56;68.85;;;45.92;;
39600;SDS011;25297;44.758;11.310;2024-02-21T09:03:22;69.97;;;47.03;;
39600;SDS011;25297;44.758;11.310;2024-02-21T09:05:48;74.72;;;49.25;;
39600;SDS011;25297;44.758;11.310;2024-02-21T09:08:14;65.32;;;44.78;;
39600;SDS011;25297;44.758;11.310;2024-02-21T09:10:39;65.95;;;45.80;;
39600;SDS011;25297;44.758;11.310;2024-02-21T09:13:05;70.22;;;48.25;;
39600;SDS011;25297;44.758;11.310;2024-02-21T09:15:32;66.32;;;47.13;;
39600;SDS011;25297;44.758;11.310;2024-02-21T09:17:58;68.50;;;46.65;;
39600;SDS011;25297;44.758;11.310;2024-02-21T09:20:24;72.30;;;48.67;;
39600;SDS011;25297;44.758;11.310;2024-02-21T09:22:49;76.53;;;52.83;;
39600;SDS011;25297;44.758;11.310;2024-02-21T09:25:15;73.10;;;50.60;;
39600;SDS011;25297;44.758;11.310;2024-02-21T09:27:41;68.00;;;48.20;;
39600;SDS011;25297;44.758;11.310;2024-02-21T09:30:08;80.78;;;53.83;;
39600;SDS011;25297;44.758;11.310;2024-02-21T09:32:34;78.65;;;54.90;;
39600;SDS011;25297;44.758;11.310;2024-02-21T09:35:00;79.30;;;54.63;;
39600;SDS011;25297;44.758;11.310;2024-02-21T09:37:25;80.82;;;52.42;;
39600;SDS011;25297;44.758;11.310;2024-02-21T09:39:51;75.65;;;51.55;;
39600;SDS011;25297;44.758;11.310;2024-02-21T09:42:20;83.30;;;55.67;;
39600;SDS011;25297;44.758;11.310;2024-02-21T09:44:49;87.13;;;59.97;;
39600;SDS011;25297;44.758;11.310;2024-02-21T09:47:19;84.95;;;56.60;;
39600;SDS011;25297;44.758;11.310;2024-02-21T09:49:49;79.40;;;54.58;;
39600;SDS011;25297;44.758;11.310;2024-02-21T09:52:17;83.32;;;56.88;;
39600;SDS011;25297;44.758;11.310;2024-02-21T09:54:44;82.85;;;57.15;;
39600;SDS011;25297;44.758;11.310;2024-02-21T09:57:10;82.78;;;57.05;;
39600;SDS011;25297;44.758;11.310;2024-02-21T09:59:36;77.80;;;52.80;;
39600;SDS011;25297;44.758;11.310;2024-02-21T10:02:03;89.47;;;60.38;;
39600;SDS011;25297;44.758;11.310;2024-02-21T10:04:29;93.18;;;64.80;;
39600;SDS011;25297;44.758;11.310;2024-02-21T10:06:55;95.68;;;64.53;;
39600;SDS011;25297;44.758;11.310;2024-02-21T10:09:25;94.13;;;61.55;;
39600;SDS011;25297;44.758;11.310;2024-02-21T10:11:55;98.90;;;68.70;;
39600;SDS011;25297;44.758;11.310;2024-02-21T10:14:21;103.32;;;69.75;;
39600;SDS011;25297;44.758;11.310;2024-02-21T10:16:47;101.18;;;68.85;;
39600;SDS011;25297;44.758;11.310;2024-02-21T10:19:20;99.03;;;65.80;;
39600;SDS011;25297;44.758;11.310;2024-02-21T10:24:34;92.80;;;63.50;;
39600;SDS011;25297;44.758;11.310;2024-02-21T10:27:03;93.75;;;66.18;;
39600;SDS011;25297;44.758;11.310;2024-02-21T10:29:38;93.20;;;63.40;;
39600;SDS011;25297;44.758;11.310;2024-02-21T10:34:34;90.85;;;64.78;;
39600;SDS011;25297;44.758;11.310;2024-02-21T10:37:01;89.72;;;63.75;;
39600;SDS011;25297;44.758;11.310;2024-02-21T10:39:38;91.75;;;62.00;;
39600;SDS011;25297;44.758;11.310;2024-02-21T10:42:07;91.28;;;63.47;;
39600;SDS011;25297;44.758;11.310;2024-02-21T10:44:39;91.18;;;64.47;;
39600;SDS011;25297;44.758;11.310;2024-02-21T10:47:09;93.70;;;64.45;;
39600;SDS011;25297;44.758;11.310;2024-02-21T10:49:39;86.07;;;59.22;;
39600;SDS011;25297;44.758;11.310;2024-02-21T10:52:08;86.88;;;59.53;;
39600;SDS011;25297;44.758;11.310;2024-02-21T10:57:05;83.25;;;57.83;;
39600;SDS011;25297;44.758;11.310;2024-02-21T10:59:33;88.03;;;59.72;;
39600;SDS011;25297;44.758;11.310;2024-02-21T11:01:59;82.10;;;58.35;;
39600;SDS011;25297;44.758;11.310;2024-02-21T11:04:25;82.75;;;57.55;;
39600;SDS011;25297;44.758;11.310;2024-02-21T11:06:51;85.53;;;59.05;;
39600;SDS011;25297;44.758;11.310;2024-02-21T11:09:17;84.88;;;57.08;;
39600;SDS011;25297;44.758;11.310;2024-02-21T11:11:43;83.00;;;57.00;;
39600;SDS011;25297;44.758;11.310;2024-02-21T11:14:10;87.07;;;58.65;;
39600;SDS011;25297;44.758;11.310;2024-02-21T11:16:43;79.93;;;54.42;;
39600;SDS011;25297;44.758;11.310;2024-02-21T11:19:29;76.25;;;56.33;;
39600;SDS011;25297;44.758;11.310;2024-02-21T11:21:56;78.55;;;57.03;;
39600;SDS011;25297;44.758;11.310;2024-02-21T11:24:26;69.45;;;51.88;;
39600;SDS011;25297;44.758;11.310;2024-02-21T11:26:52;77.13;;;54.90;;
39600;SDS011;25297;44.758;11.310;2024-02-21T11:29:24;72.95;;;52.20;;
39600;SDS011;25297;44.758;11.310;2024-02-21T11:31:51;72.25;;;52.67;;
39600;SDS011;25297;44.758;11.310;2024-02-21T11:34:17;75.57;;;51.75;;
39600;SDS011;25297;44.758;11.310;2024-02-21T11:36:47;70.13;;;49.38;;
39600;SDS011;25297;44.758;11.310;2024-02-21T11:39:21;70.55;;;46.72;;
39600;SDS011;25297;44.758;11.310;2024-02-21T11:41:59;61.28;;;42.70;;
39600;SDS011;25297;44.758;11.310;2024-02-21T11:44:29;63.67;;;43.65;;
39600;SDS011;25297;44.758;11.310;2024-02-21T11:46:55;63.83;;;46.05;;
39600;SDS011;25297;44.758;11.310;2024-02-21T11:49:21;67.15;;;45.80;;
39600;SDS011;25297;44.758;11.310;2024-02-21T11:51:49;62.40;;;43.33;;
39600;SDS011;25297;44.758;11.310;2024-02-21T11:54:24;62.15;;;45.05;;
39600;SDS011;25297;44.758;11.310;2024-02-21T11:56:49;59.58;;;42.45;;
39600;SDS011;25297;44.758;11.310;2024-02-21T11:59:15;61.90;;;43.70;;
39600;SDS011;25297;44.758;11.310;2024-02-21T12:01:41;57.40;;;40.33;;
39600;SDS011;25297;44.758;11.310;2024-02-21T12:04:06;56.30;;;37.22;;
39600;SDS011;25297;44.758;11.310;2024-02-21T12:06:33;51.53;;;35.70;;
39600;SDS011;25297;44.758;11.310;2024-02-21T12:08:59;49.47;;;36.53;;
39600;SDS011;25297;44.758;11.310;2024-02-21T12:11:26;50.83;;;37.05;;
39600;SDS011;25297;44.758;11.310;2024-02-21T12:14:03;49.50;;;37.83;;
39600;SDS011;25297;44.758;11.310;2024-02-21T12:16:33;46.95;;;34.25;;
39600;SDS011;25297;44.758;11.310;2024-02-21T12:18:59;43.75;;;32.47;;
39600;SDS011;25297;44.758;11.310;2024-02-21T12:21:25;40.33;;;30.45;;
39600;SDS011;25297;44.758;11.310;2024-02-21T12:23:54;39.15;;;29.83;;
39600;SDS011;25297;44.758;11.310;2024-02-21T12:26:20;43.55;;;32.03;;
39600;SDS011;25297;44.758;11.310;2024-02-21T12:28:46;42.83;;;32.70;;
39600;SDS011;25297;44.758;11.310;2024-02-21T12:31:11;41.65;;;30.98;;
39600;SDS011;25297;44.758;11.310;2024-02-21T12:33:37;37.20;;;29.85;;
39600;SDS011;25297;44.758;11.310;2024-02-21T12:36:03;37.08;;;28.13;;
39600;SDS011;25297;44.758;11.310;2024-02-21T12:38:29;35.42;;;27.35;;
39600;SDS011;25297;44.758;11.310;2024-02-21T12:40:55;35.42;;;26.25;;
39600;SDS011;25297;44.758;11.310;2024-02-21T12:43:22;34.85;;;26.52;;
39600;SDS011;25297;44.758;11.310;2024-02-21T12:45:48;34.30;;;26.95;;
39600;SDS011;25297;44.758;11.310;2024-02-21T12:48:14;33.65;;;24.92;;
39600;SDS011;25297;44.758;11.310;2024-02-21T12:50:40;32.65;;;25.38;;
39600;SDS011;25297;44.758;11.310;2024-02-21T12:53:12;37.35;;;27.98;;
39600;SDS011;25297;44.758;11.310;2024-02-21T12:55:40;34.75;;;27.88;;
39600;SDS011;25297;44.758;11.310;2024-02-21T12:58:06;32.25;;;26.60;;
39600;SDS011;25297;44.758;11.310;2024-02-21T13:00:32;32.40;;;26.08;;
39600;SDS011;25297;44.758;11.310;2024-02-21T13:03:00;33.88;;;27.10;;
39600;SDS011;25297;44.758;11.310;2024-02-21T13:05:25;32.30;;;25.05;;
39600;SDS011;25297;44.758;11.310;2024-02-21T13:07:52;31.25;;;23.85;;
39600;SDS011;25297;44.758;11.310;2024-02-21T13:10:19;29.95;;;24.80;;
39600;SDS011;25297;44.758;11.310;2024-02-21T13:12:44;35.67;;;26.83;;
39600;SDS011;25297;44.758;11.310;2024-02-21T13:15:10;33.25;;;26.08;;
39600;SDS011;25297;44.758;11.310;2024-02-21T13:17:37;33.67;;;27.17;;
39600;SDS011;25297;44.758;11.310;2024-02-21T13:20:02;33.97;;;27.73;;
39600;SDS011;25297;44.758;11.310;2024-02-21T13:22:28;31.98;;;26.65;;
39600;SDS011;25297;44.758;11.310;2024-02-21T13:24:54;30.55;;;26.90;;
39600;SDS011;25297;44.758;11.310;2024-02-21T13:27:20;29.83;;;23.65;;
39600;SDS011;25297;44.758;11.310;2024-02-21T13:29:46;48.75;;;41.33;;
39600;SDS011;25297;44.758;11.310;2024-02-21T13:32:11;40.72;;;36.53;;
39600;SDS011;25297;44.758;11.310;2024-02-21T13:34:37;27.83;;;24.85;;
39600;SDS011;25297;44.758;11.310;2024-02-21T13:37:03;26.98;;;22.92;;
39600;SDS011;25297;44.758;11.310;2024-02-21T13:39:29;27.15;;;22.20;;
39600;SDS011;25297;44.758;11.310;2024-02-21T13:41:55;25.65;;;21.85;;
39600;SDS011;25297;44.758;11.310;2024-02-21T13:44:21;28.25;;;23.58;;
39600;SDS011;25297;44.758;11.310;2024-02-21T13:46:46;23.77;;;21.00;;
39600;SDS011;25297;44.758;11.310;2024-02-21T13:49:12;30.10;;;23.63;;
39600;SDS011;25297;44.758;11.310;2024-02-21T13:51:37;27.02;;;23.00;;
39600;SDS011;25297;44.758;11.310;2024-02-21T13:54:03;33.53;;;24.75;;
39600;SDS011;25297;44.758;11.310;2024-02-21T13:56:30;27.13;;;23.90;;
39600;SDS011;25297;44.758;11.310;2024-02-21T13:58:57;29.33;;;22.88;;
39600;SDS011;25297;44.758;11.310;2024-02-21T14:01:25;27.70;;;22.10;;
39600;SDS011;25297;44.758;11.310;2024-02-21T14:03:51;27.95;;;23.27;;
39600;SDS011;25297;44.758;11.310;2024-02-21T14:06:16;24.33;;;21.40;;
39600;SDS011;25297;44.758;11.310;2024-02-21T14:08:42;24.65;;;21.10;;
39600;SDS011;25297;44.758;11.310;2024-02-21T14:11:08;25.80;;;21.70;;
39600;SDS011;25297;44.758;11.310;2024-02-21T14:13:33;24.63;;;20.17;;
39600;SDS011;25297;44.758;11.310;2024-02-21T14:15:59;23.35;;;19.25;;
39600;SDS011;25297;44.758;11.310;2024-02-21T14:18:24;22.77;;;18.70;;